createdAt,value
2022-11-16T00:01:40.400Z,10.20
2022-11-16T00:04:13.502Z,9.00
2022-11-16T00:06:46.177Z,9.00
2022-11-16T00:09:23.982Z,9.60
2022-11-16T00:11:56.472Z,10.00
2022-11-16T00:14:29.752Z,9.30
2022-11-16T00:17:01.483Z,9.50
2022-11-16T00:19:33.153Z,9.50
2022-11-16T00:24:34.544Z,9.20
2022-11-16T00:29:36.070Z,10.50
2022-11-16T00:34:37.725Z,8.20
2022-11-16T00:37:09.513Z,9.10
2022-11-16T00:39:40.989Z,9.10
2022-11-16T00:42:16.716Z,8.80
2022-11-16T00:44:48.253Z,10.10
2022-11-16T00:47:19.701Z,8.90
2022-11-16T00:49:51.268Z,9.60
2022-11-16T00:52:22.842Z,10.20
2022-11-16T00:54:54.871Z,9.90
2022-11-16T00:57:26.531Z,9.10
2022-11-16T01:02:29.494Z,9.20
2022-11-16T01:05:01.154Z,9.80
2022-11-16T01:07:33.994Z,8.80
2022-11-16T01:10:05.961Z,8.10
2022-11-16T01:12:37.477Z,9.40
2022-11-16T01:15:10.470Z,11.90
2022-11-16T01:17:42.028Z,8.80
2022-11-16T01:20:15.925Z,9.00
2022-11-16T01:22:47.479Z,10.30
2022-11-16T01:25:19.158Z,10.50
2022-11-16T01:27:50.797Z,9.60
2022-11-16T01:33:08.956Z,9.60
2022-11-16T01:35:40.904Z,11.00
2022-11-16T01:38:12.907Z,9.80
2022-11-16T01:43:18.064Z,10.90
2022-11-16T01:45:50.352Z,10.80
2022-11-16T01:48:23.725Z,10.40
2022-11-16T01:50:55.326Z,10.20
2022-11-16T01:53:26.854Z,9.90
2022-11-16T01:56:00.712Z,8.90
2022-11-16T01:58:41.759Z,9.30
2022-11-16T02:01:27.125Z,9.30
2022-11-16T02:04:00.099Z,8.60
2022-11-16T02:06:50.313Z,8.60
2022-11-16T02:09:58.518Z,9.40
2022-11-16T02:13:11.872Z,8.00
2022-11-16T02:15:49.589Z,8.60
2022-11-16T02:18:31.524Z,8.60
2022-11-16T02:21:20.048Z,9.10
2022-11-16T02:24:16.303Z,9.70
2022-11-16T02:27:12.588Z,8.40
2022-11-16T02:29:44.690Z,9.70
2022-11-16T02:32:18.584Z,8.70
2022-11-16T02:34:50.863Z,9.40
2022-11-16T02:37:24.527Z,9.90
2022-11-16T02:39:58.085Z,9.70
2022-11-16T02:42:32.058Z,9.70
2022-11-16T02:45:03.555Z,9.30
2022-11-16T02:47:35.245Z,8.90
2022-11-16T02:50:09.984Z,9.40
2022-11-16T02:52:41.612Z,9.40
2022-11-16T02:55:14.380Z,9.20
2022-11-16T02:57:54.859Z,10.50
2022-11-16T03:00:27.507Z,11.10
2022-11-16T03:03:03.620Z,10.00
2022-11-16T03:05:38.340Z,10.90
2022-11-16T03:08:27.792Z,9.70
2022-11-16T03:11:22.449Z,10.70
2022-11-16T03:13:54.461Z,10.10
2022-11-16T03:16:27.988Z,10.20
2022-11-16T03:19:01.290Z,10.60
2022-11-16T03:21:34.850Z,10.00
2022-11-16T03:24:07.253Z,9.10
2022-11-16T03:26:43.647Z,9.60
2022-11-16T03:29:19.748Z,11.60
2022-11-16T03:31:55.920Z,9.70
2022-11-16T03:34:30.092Z,9.40
2022-11-16T03:37:01.672Z,9.40
2022-11-16T03:39:35.113Z,9.90
2022-11-16T03:42:07.957Z,11.50
2022-11-16T03:44:40.078Z,10.30
2022-11-16T03:47:11.817Z,9.60
2022-11-16T03:49:46.737Z,10.20
2022-11-16T03:52:19.205Z,9.00
2022-11-16T03:54:51.787Z,10.60
2022-11-16T03:57:23.415Z,10.00
2022-11-16T03:59:58.557Z,10.40
2022-11-16T04:02:30.060Z,10.20
2022-11-16T04:05:20.254Z,9.90
2022-11-16T04:08:10.154Z,9.40
2022-11-16T04:10:59.361Z,10.30
2022-11-16T04:13:49.866Z,10.50
2022-11-16T04:16:39.164Z,11.10
2022-11-16T04:19:30.491Z,9.80
2022-11-16T04:22:20.178Z,11.40
2022-11-16T04:24:52.822Z,10.70
2022-11-16T04:27:43.626Z,10.40
2022-11-16T04:30:16.405Z,9.80
2022-11-16T04:33:05.871Z,9.10
2022-11-16T04:35:55.399Z,10.10
2022-11-16T04:38:27.832Z,10.50
2022-11-16T04:40:59.383Z,9.30
2022-11-16T04:43:30.776Z,9.90
2022-11-16T04:46:19.920Z,13.20
2022-11-16T04:48:51.305Z,9.50
2022-11-16T04:51:22.734Z,11.60
2022-11-16T04:53:54.156Z,10.70
2022-11-16T04:56:26.697Z,10.70
2022-11-16T04:58:58.428Z,10.00
2022-11-16T05:01:44.363Z,11.40
2022-11-16T05:04:15.960Z,10.10
2022-11-16T05:06:48.446Z,11.50
2022-11-16T05:09:19.987Z,12.40
2022-11-16T05:11:52.240Z,10.90
2022-11-16T05:16:53.910Z,10.30
2022-11-16T05:19:43.247Z,10.20
2022-11-16T05:22:14.947Z,11.20
2022-11-16T05:24:47.124Z,12.90
2022-11-16T05:29:49.812Z,10.30
2022-11-16T05:32:23.915Z,11.30
2022-11-16T05:34:55.902Z,11.40
2022-11-16T05:37:27.758Z,11.30
2022-11-16T05:39:59.157Z,9.90
2022-11-16T05:42:40.479Z,10.30
2022-11-16T05:45:18.406Z,10.20
2022-11-16T05:47:52.945Z,12.70
2022-11-16T05:50:25.113Z,10.40
2022-11-16T05:53:07.665Z,10.00
2022-11-16T05:55:39.910Z,12.30
2022-11-16T05:58:12.032Z,11.20
2022-11-16T06:00:43.671Z,10.60
2022-11-16T06:05:46.319Z,10.40
2022-11-16T06:08:19.241Z,11.60
2022-11-16T06:13:21.168Z,12.00
2022-11-16T06:15:54.097Z,11.00
2022-11-16T06:20:55.591Z,11.20
2022-11-16T06:25:58.144Z,11.70
2022-11-16T06:28:31.033Z,11.50
2022-11-16T06:31:03.388Z,11.80
2022-11-16T06:33:39.448Z,10.70
2022-11-16T06:36:15.426Z,10.20
2022-11-16T06:38:47.788Z,11.00
2022-11-16T06:41:20.100Z,11.90
2022-11-16T06:43:54.196Z,12.40
2022-11-16T06:46:29.006Z,11.50
2022-11-16T06:49:05.565Z,11.90
2022-11-16T06:51:39.258Z,9.80
2022-11-16T06:54:15.491Z,10.20
2022-11-16T06:56:48.482Z,9.70
2022-11-16T06:59:24.870Z,10.90
2022-11-16T07:01:58.498Z,11.30
2022-11-16T07:04:33.402Z,10.30
2022-11-16T07:07:12.595Z,11.10
2022-11-16T07:09:45.954Z,11.20
2022-11-16T07:12:19.921Z,11.30
2022-11-16T07:14:54.571Z,10.70
2022-11-16T07:17:27.216Z,9.60
2022-11-16T07:20:04.113Z,9.60
2022-11-16T07:22:37.965Z,11.50
2022-11-16T07:25:16.583Z,10.50
2022-11-16T07:27:50.966Z,10.60
2022-11-16T07:30:23.875Z,10.50
2022-11-16T07:33:24.077Z,10.50
2022-11-16T07:36:19.172Z,10.40
2022-11-16T07:39:08.663Z,10.20
2022-11-16T07:41:47.464Z,11.00
2022-11-16T07:44:37.037Z,10.10
2022-11-16T07:47:17.064Z,10.00
2022-11-16T07:49:50.901Z,10.70
2022-11-16T07:52:27.539Z,11.70
2022-11-16T07:55:13.139Z,9.40
2022-11-16T07:57:57.041Z,9.80
2022-11-16T08:00:30.363Z,9.70
2022-11-16T08:03:13.632Z,10.40
2022-11-16T08:05:53.056Z,9.30
2022-11-16T08:08:37.419Z,10.60
2022-11-16T08:30:10.229Z,8.80
2022-11-16T08:32:46.064Z,8.90
2022-11-16T08:35:19.322Z,10.30
2022-11-16T08:38:06.186Z,10.10
2022-11-16T08:40:38.858Z,9.00
2022-11-16T08:43:11.335Z,9.00
2022-11-16T08:45:43.017Z,8.60
2022-11-16T08:48:15.580Z,9.20
2022-11-16T08:51:15.813Z,9.60
2022-11-16T08:53:40.194Z,9.10
2022-11-16T08:56:13.532Z,9.10
2022-11-16T08:58:47.593Z,8.90
2022-11-16T09:01:20.672Z,10.00
2022-11-16T09:03:52.311Z,8.50
2022-11-16T09:06:23.991Z,8.00
2022-11-16T09:08:55.604Z,9.40
2022-11-16T09:11:27.394Z,9.50
2022-11-16T09:13:59.266Z,8.60
2022-11-16T09:19:01.131Z,9.50
2022-11-16T09:21:32.945Z,7.70
2022-11-16T09:24:05.266Z,7.70
2022-11-16T09:26:36.887Z,9.30
2022-11-16T09:29:09.065Z,7.50
2022-11-16T09:31:40.763Z,9.00
2022-11-16T09:34:13.338Z,8.10
2022-11-16T09:39:30.646Z,10.00
2022-11-16T09:42:08.926Z,10.00
2022-11-16T09:44:53.889Z,8.80
2022-11-16T09:47:28.464Z,9.90
2022-11-16T09:50:04.134Z,10.00
2022-11-16T09:52:37.888Z,9.80
2022-11-16T09:55:21.900Z,9.30
2022-11-16T09:57:53.976Z,10.00
2022-11-16T10:00:26.432Z,9.60
2022-11-16T10:03:03.594Z,9.60
2022-11-16T10:05:37.087Z,10.30
2022-11-16T10:08:12.306Z,9.30
2022-11-16T10:10:49.351Z,10.00
2022-11-16T10:13:28.496Z,9.80
2022-11-16T10:16:04.735Z,10.30
2022-11-16T10:18:47.057Z,10.80
2022-11-16T10:21:27.592Z,10.40
2022-11-16T10:24:07.029Z,9.60
2022-11-16T10:26:42.198Z,9.40
2022-11-16T10:29:20.805Z,9.20
2022-11-16T10:31:58.889Z,9.70
2022-11-16T10:34:32.461Z,8.60
2022-11-16T10:37:04.775Z,9.90
2022-11-16T10:39:41.167Z,7.80
2022-11-16T10:42:16.091Z,7.40
2022-11-16T10:44:49.160Z,7.40
2022-11-16T10:47:22.730Z,7.00
2022-11-16T10:49:57.501Z,9.00
2022-11-16T10:52:29.221Z,9.30
2022-11-16T10:55:00.806Z,8.60
2022-11-16T10:57:52.120Z,9.30
2022-11-16T11:00:38.841Z,9.30
2022-11-16T11:03:12.295Z,9.70
2022-11-16T11:05:53.892Z,9.20
2022-11-16T11:08:30.718Z,9.60
2022-11-16T11:11:03.502Z,8.70
2022-11-16T11:13:35.440Z,9.80
2022-11-16T11:16:20.669Z,9.10
2022-11-16T11:18:53.222Z,8.80
2022-11-16T11:21:25.645Z,8.60
2022-11-16T11:24:16.079Z,9.10
2022-11-16T11:26:54.447Z,8.20
2022-11-16T11:29:29.088Z,8.30
2022-11-16T11:32:01.755Z,8.30
2022-11-16T11:34:36.003Z,7.20
2022-11-16T11:37:07.779Z,8.20
2022-11-16T11:39:40.137Z,7.70
2022-11-16T11:42:24.129Z,8.50
2022-11-16T11:45:01.484Z,9.70
2022-11-16T11:48:00.574Z,8.00
2022-11-16T11:50:44.170Z,8.70
2022-11-16T11:53:25.784Z,8.10
2022-11-16T11:55:59.087Z,8.90
2022-11-16T11:58:32.825Z,8.70
2022-11-16T12:01:18.400Z,8.30
2022-11-16T12:04:27.517Z,9.60
2022-11-16T12:07:00.416Z,8.90
2022-11-16T12:09:37.151Z,9.90
2022-11-16T12:12:20.804Z,10.60
2022-11-16T12:14:59.308Z,9.10
2022-11-16T12:17:34.820Z,10.20
2022-11-16T12:20:20.021Z,9.50
2022-11-16T12:23:15.612Z,9.40
2022-11-16T12:25:50.519Z,9.80
2022-11-16T12:28:28.345Z,10.90
2022-11-16T12:31:16.348Z,7.90
2022-11-16T12:33:49.876Z,8.70
2022-11-16T12:36:26.300Z,9.20
2022-11-16T12:39:02.957Z,9.70
2022-11-16T12:42:02.694Z,10.00
2022-11-16T12:44:42.334Z,9.60
2022-11-16T12:47:16.008Z,8.50
2022-11-16T12:49:59.468Z,8.80
2022-11-16T12:52:39.673Z,9.30
2022-11-16T12:55:32.165Z,9.50
2022-11-16T12:58:11.997Z,8.60
2022-11-16T13:00:51.527Z,9.60
2022-11-16T13:03:25.221Z,9.40
2022-11-16T13:06:00.172Z,9.30
2022-11-16T13:08:49.957Z,10.20
2022-11-16T13:11:24.415Z,9.40
2022-11-16T13:13:59.337Z,9.20
2022-11-16T13:16:31.001Z,9.00
2022-11-16T13:19:02.977Z,9.50
2022-11-16T13:21:40.386Z,8.30
2022-11-16T13:24:17.523Z,9.00
2022-11-16T13:26:53.130Z,8.80
2022-11-16T13:29:27.951Z,8.50
2022-11-16T13:32:02.397Z,8.30
2022-11-16T13:34:35.745Z,10.00
2022-11-16T13:37:29.066Z,9.20
2022-11-16T13:40:21.717Z,9.60
2022-11-16T13:43:06.744Z,9.70
2022-11-16T13:45:39.586Z,10.00
2022-11-16T13:48:24.798Z,9.60
2022-11-16T13:50:57.738Z,8.70
2022-11-16T13:54:25.138Z,7.90
2022-11-16T13:56:28.547Z,7.40
2022-11-16T13:59:00.836Z,7.50
2022-11-16T14:01:55.841Z,8.00
2022-11-16T14:04:43.777Z,7.10
2022-11-16T14:07:33.982Z,6.50
2022-11-16T14:10:08.183Z,7.20
2022-11-16T14:12:59.799Z,6.60
2022-11-16T14:15:35.733Z,5.80
2022-11-16T14:18:37.568Z,7.70
2022-11-16T14:23:57.428Z,7.00
2022-11-16T14:26:43.889Z,6.10
2022-11-16T14:29:28.015Z,6.50
2022-11-16T14:31:59.719Z,7.10
2022-11-16T14:37:03.454Z,8.20
2022-11-16T14:39:38.561Z,8.50
2022-11-16T14:42:16.732Z,9.30
2022-11-16T14:44:48.294Z,8.70
2022-11-16T14:47:26.052Z,10.00
2022-11-16T14:49:57.766Z,9.00
2022-11-16T14:55:03.736Z,8.20
2022-11-16T14:57:35.470Z,10.10
2022-11-16T15:00:20.615Z,10.00
2022-11-16T15:02:57.600Z,11.00
2022-11-16T15:05:34.619Z,10.90
2022-11-16T15:08:14.404Z,11.60
2022-11-16T15:10:52.211Z,10.60
2022-11-16T15:13:25.540Z,11.10
2022-11-16T15:19:02.531Z,11.30
2022-11-16T15:21:34.693Z,11.20
2022-11-16T15:24:35.577Z,10.60
2022-11-16T15:26:59.340Z,10.20
2022-11-16T15:29:34.055Z,9.70
2022-11-16T15:32:05.827Z,10.50
2022-11-16T15:37:07.569Z,9.50
2022-11-16T15:39:39.442Z,10.40
2022-11-16T15:42:13.450Z,10.60
2022-11-16T15:44:45.037Z,11.30
2022-11-16T15:47:16.856Z,11.70
2022-11-16T15:49:50.022Z,11.50
2022-11-16T15:52:55.064Z,10.80
2022-11-16T15:55:30.876Z,11.50
2022-11-16T15:58:04.607Z,10.80
2022-11-16T16:00:37.789Z,11.60
2022-11-16T16:03:17.607Z,13.20
2022-11-16T16:05:49.667Z,12.10
2022-11-16T16:08:32.804Z,11.70
2022-11-16T16:11:06.674Z,12.10
2022-11-16T16:13:39.213Z,11.10
2022-11-16T16:16:31.844Z,11.70
2022-11-16T16:19:09.524Z,11.50
2022-11-16T16:21:46.081Z,10.20
2022-11-16T16:24:41.909Z,9.10
2022-11-16T16:27:15.566Z,11.60
2022-11-16T16:29:47.815Z,11.30
2022-11-16T16:32:24.294Z,11.80
2022-11-16T16:34:55.908Z,10.40
2022-11-16T16:37:30.227Z,10.80
2022-11-16T16:40:01.872Z,9.70
2022-11-16T16:45:03.653Z,10.60
2022-11-16T16:47:35.027Z,10.40
2022-11-16T16:50:08.304Z,9.80
2022-11-16T16:52:40.194Z,10.90
2022-11-16T16:55:12.369Z,10.10
2022-11-16T16:57:43.788Z,12.00
2022-11-16T17:00:17.542Z,11.80
2022-11-16T17:02:49.458Z,11.30
2022-11-16T17:05:21.085Z,9.60
2022-11-16T17:07:52.448Z,11.30
2022-11-16T17:10:24.162Z,10.90
2022-11-16T17:12:58.279Z,10.40
2022-11-16T17:15:29.878Z,10.90
2022-11-16T17:18:02.109Z,12.60
2022-11-16T17:20:33.620Z,13.40
2022-11-16T17:23:05.155Z,12.80
2022-11-16T17:25:37.099Z,12.20
2022-11-16T17:28:08.617Z,14.00
2022-11-16T17:30:40.181Z,14.60
2022-11-16T17:33:12.075Z,12.10
2022-11-16T17:38:13.502Z,12.10
2022-11-16T17:40:44.938Z,12.90
2022-11-16T17:43:16.633Z,13.80
2022-11-16T17:45:48.710Z,12.30
2022-11-16T17:48:20.153Z,13.00
2022-11-16T17:50:51.675Z,12.80
2022-11-16T17:53:23.902Z,13.30
2022-11-16T17:55:56.741Z,13.20
2022-11-16T17:58:28.449Z,13.50
2022-11-16T18:00:59.854Z,12.90
2022-11-16T18:03:31.866Z,12.40
2022-11-16T18:06:07.911Z,13.30
2022-11-16T18:08:39.407Z,12.50
2022-11-16T18:11:11.751Z,12.70
2022-11-16T18:13:43.809Z,12.50
2022-11-16T18:16:16.419Z,12.70
2022-11-16T18:18:48.157Z,11.80
2022-11-16T18:23:52.884Z,11.90
2022-11-16T18:26:25.094Z,12.50
2022-11-16T18:28:56.794Z,11.90
2022-11-16T18:31:30.068Z,11.90
2022-11-16T18:34:01.920Z,12.80
2022-11-16T18:36:33.723Z,11.20
2022-11-16T18:39:05.496Z,11.40
2022-11-16T18:41:38.693Z,13.60
2022-11-16T18:44:13.834Z,12.50
2022-11-16T18:46:45.736Z,10.80
2022-11-16T18:49:17.252Z,11.70
2022-11-16T18:51:50.078Z,10.70
2022-11-16T18:54:21.872Z,11.60
2022-11-16T18:56:53.494Z,10.40
2022-11-16T18:59:26.247Z,11.10
2022-11-16T19:01:58.513Z,10.90
2022-11-16T19:04:30.514Z,11.40
2022-11-16T19:07:02.505Z,11.80
2022-11-16T19:12:04.424Z,9.60
2022-11-16T19:14:36.131Z,10.70
2022-11-16T19:17:07.886Z,9.60
2022-11-16T19:19:39.529Z,9.50
2022-11-16T19:22:11.740Z,9.50
2022-11-16T19:24:43.425Z,9.70
2022-11-16T19:29:45.483Z,9.30
2022-11-16T19:32:17.427Z,9.50
2022-11-16T19:34:49.161Z,10.20
2022-11-16T19:39:50.377Z,10.30
2022-11-16T19:42:21.980Z,8.60
2022-11-16T19:44:53.600Z,10.50
2022-11-16T19:47:26.795Z,9.90
2022-11-16T19:49:58.921Z,9.40
2022-11-16T19:52:31.041Z,9.60
2022-11-16T19:55:02.926Z,8.20
2022-11-16T19:57:34.744Z,8.70
2022-11-16T20:00:07.011Z,8.80
2022-11-16T20:02:39.014Z,9.20
2022-11-16T20:05:12.474Z,10.00
2022-11-16T20:07:44.945Z,8.90
2022-11-16T20:10:16.922Z,8.80
2022-11-16T20:12:50.476Z,9.90
2022-11-16T20:15:24.439Z,8.30
2022-11-16T20:17:55.869Z,9.30
2022-11-16T20:20:28.163Z,8.90
2022-11-16T20:25:30.351Z,8.40
2022-11-16T20:28:02.012Z,8.20
2022-11-16T20:33:03.288Z,8.70
2022-11-16T20:35:35.915Z,9.60
2022-11-16T20:38:07.872Z,9.70
2022-11-16T20:40:40.099Z,10.00
2022-11-16T20:43:14.702Z,9.70
2022-11-16T20:45:46.035Z,8.80
2022-11-16T20:48:17.619Z,9.50
2022-11-16T20:50:54.258Z,9.50
2022-11-16T20:53:26.783Z,9.20
2022-11-16T20:55:58.888Z,10.50
2022-11-16T20:58:30.319Z,9.90
2022-11-16T21:01:03.962Z,10.00
2022-11-16T21:03:35.782Z,10.30
2022-11-16T21:06:09.094Z,10.60
2022-11-16T21:08:40.559Z,10.70
2022-11-16T21:11:16.222Z,10.80
2022-11-16T21:14:06.844Z,10.20
2022-11-16T21:16:38.535Z,11.40
2022-11-16T21:21:41.026Z,11.20
2022-11-16T21:24:12.921Z,11.80
2022-11-16T21:26:44.550Z,13.00
2022-11-16T21:29:15.975Z,10.90
2022-11-16T21:31:47.533Z,12.10
2022-11-16T21:34:20.443Z,12.60
2022-11-16T21:36:54.176Z,12.40
2022-11-16T21:39:26.255Z,12.60
2022-11-16T21:41:57.809Z,10.20
2022-11-16T21:44:42.096Z,12.80
2022-11-16T21:47:13.836Z,11.80
2022-11-16T21:50:08.611Z,11.70
2022-11-16T21:52:36.718Z,12.10
2022-11-16T21:55:09.388Z,12.50
2022-11-16T21:57:40.814Z,13.50
2022-11-16T22:00:15.393Z,13.10
2022-11-16T22:02:47.025Z,12.10
2022-11-16T22:05:36.254Z,13.00
2022-11-16T22:08:12.630Z,11.30
2022-11-16T22:10:43.999Z,12.50
2022-11-16T22:13:15.536Z,12.60
2022-11-16T22:18:17.259Z,12.20
2022-11-16T22:20:51.157Z,11.70
2022-11-16T22:23:34.553Z,12.80
2022-11-16T22:26:06.769Z,12.10
2022-11-16T22:28:38.776Z,13.50
2022-11-16T22:31:11.209Z,12.40
2022-11-16T22:33:43.352Z,13.50
2022-11-16T22:36:15.352Z,13.10
2022-11-16T22:38:46.898Z,13.00
2022-11-16T22:41:20.358Z,13.10
2022-11-16T22:43:51.833Z,13.20
2022-11-16T22:46:23.383Z,13.20
2022-11-16T22:51:26.579Z,13.90
2022-11-16T22:53:58.790Z,13.70
2022-11-16T22:56:30.461Z,12.70
2022-11-16T22:59:02.840Z,12.00
2022-11-16T23:01:34.489Z,12.70
2022-11-16T23:04:06.723Z,14.00
2022-11-16T23:06:38.325Z,13.40
2022-11-16T23:09:10.474Z,12.80
2022-11-16T23:12:00.396Z,13.60
2022-11-16T23:14:50.200Z,13.10
2022-11-16T23:17:21.949Z,13.50
2022-11-16T23:20:17.287Z,14.00
2022-11-16T23:23:06.909Z,12.20
2022-11-16T23:25:56.390Z,13.00
2022-11-16T23:28:28.486Z,10.50
2022-11-16T23:31:00.091Z,11.20
2022-11-16T23:33:45.541Z,11.60
2022-11-16T23:36:17.087Z,10.70
2022-11-16T23:41:36.381Z,11.80
2022-11-16T23:44:08.314Z,11.50
